createdAt,value
2015-08-14T00:00:03.281Z,68.18
2015-08-14T00:00:15.656Z,68.75
2015-08-14T00:00:28.031Z,68.75
2015-08-14T00:00:40.409Z,68.56
2015-08-14T00:00:52.784Z,68.08
2015-08-14T00:01:05.159Z,68.27
2015-08-14T00:01:17.534Z,68.18
2015-08-14T00:01:29.909Z,68.18
2015-08-14T00:01:42.286Z,68.18
2015-08-14T00:01:54.661Z,68.37
2015-08-14T00:02:07.036Z,68.27
2015-08-14T00:02:19.411Z,68.18
2015-08-14T00:02:31.801Z,68.18
2015-08-14T00:02:44.177Z,68.27
2015-08-14T00:02:56.552Z,68.18
2015-08-14T00:03:08.927Z,68.08
2015-08-14T00:03:21.302Z,68.18
2015-08-14T00:03:33.693Z,68.08
2015-08-14T00:03:46.070Z,67.8
2015-08-14T00:03:58.445Z,68.12
2015-08-14T00:04:10.820Z,67.99
2015-08-14T00:04:23.195Z,68.08
2015-08-14T00:04:35.585Z,68.18
2015-08-14T00:04:47.962Z,67.89
2015-08-14T00:04:59.619Z,68.08
2015-08-14T00:05:12.009Z,68.08
2015-08-14T00:05:24.384Z,67.8
2015-08-14T00:05:36.759Z,67.8
2015-08-14T00:05:49.136Z,67.8
2015-08-14T00:06:01.511Z,67.89
2015-08-14T00:06:13.902Z,67.7
2015-08-14T00:06:26.293Z,68.27
2015-08-14T00:06:38.683Z,68.27
2015-08-14T00:06:51.076Z,68.08
2015-08-14T00:07:03.451Z,68.08
2015-08-14T00:07:15.857Z,68.18
2015-08-14T00:07:28.279Z,67.99
2015-08-14T00:07:40.685Z,68.27
2015-08-14T00:07:53.093Z,68.27
2015-08-14T00:08:05.484Z,68.18
2015-08-14T00:08:17.890Z,68.08
2015-08-14T00:08:30.297Z,68.18
2015-08-14T00:08:42.703Z,68.18
2015-08-14T00:08:54.408Z,68.18
2015-08-14T00:09:06.814Z,68.18
2015-08-14T00:09:19.220Z,68.08
2015-08-14T00:09:31.642Z,68.08
2015-08-14T00:09:44.017Z,68.27
2015-08-14T00:09:56.394Z,68.27
2015-08-14T00:10:08.769Z,68.27
2015-08-14T00:10:21.144Z,68.18
2015-08-14T00:10:33.519Z,68.18
2015-08-14T00:10:45.894Z,68.27
2015-08-14T00:10:58.271Z,68.27
2015-08-14T00:11:10.646Z,68.27
2015-08-14T00:11:23.021Z,67.99
2015-08-14T00:11:35.396Z,68.65
2015-08-14T00:11:47.771Z,68.65
2015-08-14T00:12:00.148Z,68.75
2015-08-14T00:12:12.523Z,68.59
2015-08-14T00:12:24.898Z,68.84
2015-08-14T00:12:37.289Z,68.65
2015-08-14T00:12:49.664Z,68.84
2015-08-14T00:13:02.041Z,68.56
2015-08-14T00:13:14.416Z,68.46
2015-08-14T00:13:26.791Z,68.46
2015-08-14T00:13:39.166Z,68.65
2015-08-14T00:13:51.525Z,69.04
2015-08-14T00:14:03.918Z,69.13
2015-08-14T00:14:16.309Z,69.13
2015-08-14T00:14:28.668Z,69.13
2015-08-14T00:14:41.043Z,69.32
2015-08-14T00:14:53.418Z,68.94
2015-08-14T00:15:05.795Z,68.94
2015-08-14T00:15:18.186Z,69.42
2015-08-14T00:15:30.576Z,69.42
2015-08-14T00:15:42.967Z,69.6
2015-08-14T00:15:55.373Z,69.51
2015-08-14T00:16:07.766Z,69.6
2015-08-14T00:16:20.219Z,69.42
2015-08-14T00:16:32.656Z,69.6
2015-08-14T00:16:45.141Z,69.42
2015-08-14T00:16:57.563Z,69.32
2015-08-14T00:17:09.955Z,69.23
2015-08-14T00:17:22.377Z,69.32
2015-08-14T00:17:34.768Z,69.32
2015-08-14T00:17:47.205Z,68.94
2015-08-14T00:17:59.627Z,69.13
2015-08-14T00:18:11.238Z,69.23
2015-08-14T00:18:23.504Z,69.13
2015-08-14T00:18:35.910Z,69.13
2015-08-14T00:18:49.738Z,69.23
2015-08-14T00:19:02.020Z,69.42
2015-08-14T00:19:14.397Z,69.6
2015-08-14T00:19:26.787Z,69.7
2015-08-14T00:19:39.162Z,69.7
2015-08-14T00:19:51.584Z,69.6
2015-08-14T00:20:04.022Z,69.7
2015-08-14T00:20:16.461Z,69.7
2015-08-14T00:20:29.492Z,69.7
2015-08-14T00:20:41.930Z,69.42
2015-08-14T00:20:54.305Z,69.42
2015-08-14T00:21:06.916Z,69.42
2015-08-14T00:21:20.401Z,68.75
2015-08-14T00:21:34.010Z,69.23
2015-08-14T00:21:46.932Z,69.13
2015-08-14T00:21:59.682Z,69.23
2015-08-14T00:22:12.059Z,69.23
2015-08-14T00:22:24.434Z,69.23
2015-08-14T00:22:36.809Z,69.51
2015-08-14T00:22:49.246Z,69.6
2015-08-14T00:23:01.621Z,69.6
2015-08-14T00:23:13.997Z,69.51
2015-08-14T00:23:26.716Z,69.42
2015-08-14T00:23:38.951Z,69.42
2015-08-14T00:23:51.326Z,69.51
2015-08-14T00:24:03.701Z,69.13
2015-08-14T00:24:16.078Z,68.84
2015-08-14T00:24:28.453Z,68.56
2015-08-14T00:24:40.828Z,68.37
2015-08-14T00:24:53.203Z,68.75
2015-08-14T00:25:06.343Z,68.65
2015-08-14T00:25:18.971Z,67.99
2015-08-14T00:25:31.268Z,67.89
2015-08-14T00:25:43.721Z,68.37
2015-08-14T00:25:56.174Z,68.46
2015-08-14T00:26:08.627Z,68.37
2015-08-14T00:26:21.066Z,68.65
2015-08-14T00:26:33.863Z,67.99
2015-08-14T00:26:46.128Z,68.46
2015-08-14T00:26:58.394Z,68.18
2015-08-14T00:27:10.816Z,68.27
2015-08-14T00:27:23.241Z,68.37
2015-08-14T00:27:35.663Z,68.37
2015-08-14T00:27:48.272Z,68.37
2015-08-14T00:28:00.694Z,68.27
2015-08-14T00:28:13.116Z,68.37
2015-08-14T00:28:25.555Z,68.27
2015-08-14T00:28:37.852Z,68.27
2015-08-14T00:28:50.243Z,68.18
2015-08-14T00:29:02.618Z,68.08
2015-08-14T00:29:15.008Z,68.08
2015-08-14T00:29:27.384Z,68.65
2015-08-14T00:29:39.056Z,68.65
2015-08-14T00:29:51.431Z,68.75
2015-08-14T00:30:03.806Z,68.65
2015-08-14T00:30:16.197Z,68.65
2015-08-14T00:30:28.575Z,68.56
2015-08-14T00:30:40.950Z,68.46
2015-08-14T00:30:53.325Z,68.65
2015-08-14T00:31:05.700Z,68.65
2015-08-14T00:31:18.075Z,68.84
2015-08-14T00:31:30.452Z,68.75
2015-08-14T00:31:42.843Z,68.46
2015-08-14T00:31:55.061Z,68.56
2015-08-14T00:32:07.436Z,69.13
2015-08-14T00:32:19.811Z,69.04
2015-08-14T00:32:32.204Z,69.13
2015-08-14T00:32:44.595Z,69.04
2015-08-14T00:32:56.970Z,69.04
2015-08-14T00:33:09.376Z,69.13
2015-08-14T00:33:21.751Z,69.04
2015-08-14T00:33:34.127Z,69.13
2015-08-14T00:33:46.502Z,69.13
2015-08-14T00:33:58.877Z,69.23
2015-08-14T00:34:11.252Z,69.42
2015-08-14T00:34:23.627Z,69.23
2015-08-14T00:34:36.004Z,69.04
2015-08-14T00:34:48.394Z,69.04
2015-08-14T00:35:00.785Z,69.04
2015-08-14T00:35:13.160Z,69.13
2015-08-14T00:35:25.535Z,69.13
2015-08-14T00:35:37.928Z,69.13
2015-08-14T00:35:50.334Z,69.13
2015-08-14T00:36:02.740Z,69.23
2015-08-14T00:36:15.131Z,69.23
2015-08-14T00:36:27.537Z,69.13
2015-08-14T00:36:39.930Z,68.75
2015-08-14T00:36:52.336Z,68.75
2015-08-14T00:37:04.727Z,69.04
2015-08-14T00:37:17.133Z,68.75
2015-08-14T00:37:30.336Z,68.18
2015-08-14T00:37:41.916Z,68.65
2015-08-14T00:37:54.354Z,68.37
2015-08-14T00:38:06.775Z,68.46
2015-08-14T00:38:18.994Z,68.75
2015-08-14T00:38:31.369Z,69.04
2015-08-14T00:38:43.747Z,69.04
2015-08-14T00:38:56.122Z,68.84
2015-08-14T00:39:08.497Z,69.04
2015-08-14T00:39:20.872Z,68.65
2015-08-14T00:39:33.247Z,68.84
2015-08-14T00:39:45.623Z,68.37
2015-08-14T00:39:57.998Z,68.65
2015-08-14T00:40:10.373Z,68.65
2015-08-14T00:40:22.061Z,68.65
2015-08-14T00:40:34.436Z,68.75
2015-08-14T00:40:46.813Z,68.56
2015-08-14T00:40:59.203Z,68.65
2015-08-14T00:41:11.438Z,68.65
2015-08-14T00:41:23.813Z,68.65
2015-08-14T00:41:36.188Z,68.65
2015-08-14T00:41:48.581Z,68.65
2015-08-14T00:42:00.956Z,68.65
2015-08-14T00:42:13.331Z,68.75
2015-08-14T00:42:25.706Z,68.75
2015-08-14T00:42:38.144Z,68.56
2015-08-14T00:42:50.520Z,68.84
2015-08-14T00:43:02.910Z,68.65
2015-08-14T00:43:15.129Z,68.65
2015-08-14T00:43:27.504Z,68.56
2015-08-14T00:43:39.879Z,68.65
2015-08-14T00:43:52.272Z,68.65
2015-08-14T00:44:04.678Z,68.65
2015-08-14T00:44:17.053Z,68.56
2015-08-14T00:44:29.444Z,68.65
2015-08-14T00:44:41.834Z,68.37
2015-08-14T00:44:54.212Z,68.56
2015-08-14T00:45:06.603Z,67.89
2015-08-14T00:45:19.009Z,68.08
2015-08-14T00:45:31.415Z,68.75
2015-08-14T00:45:43.822Z,68.65
2015-08-14T00:45:56.230Z,68.65
2015-08-14T00:46:08.621Z,68.65
2015-08-14T00:46:21.042Z,68.65
2015-08-14T00:46:33.449Z,68.75
2015-08-14T00:46:45.855Z,69.04
2015-08-14T00:46:58.293Z,68.46
2015-08-14T00:47:09.965Z,68.75
2015-08-14T00:47:22.340Z,68.37
2015-08-14T00:47:34.715Z,68.65
2015-08-14T00:47:46.372Z,68.56
2015-08-14T00:47:58.749Z,68.65
2015-08-14T00:48:11.139Z,68.65
2015-08-14T00:48:23.514Z,68.56
2015-08-14T00:48:35.889Z,68.75
2015-08-14T00:48:48.280Z,68.65
2015-08-14T00:48:59.219Z,68.75
2015-08-14T00:49:11.594Z,68.56
2015-08-14T00:49:23.969Z,68.65
2015-08-14T00:49:36.344Z,68.56
2015-08-14T00:49:48.735Z,68.94
2015-08-14T00:50:01.128Z,68.84
2015-08-14T00:50:13.487Z,69.13
2015-08-14T00:50:25.862Z,69.13
2015-08-14T00:50:38.096Z,68.94
2015-08-14T00:50:50.471Z,69.04
2015-08-14T00:51:02.161Z,69.13
2015-08-14T00:51:13.817Z,69.04
2015-08-14T00:51:26.208Z,69.04
2015-08-14T00:51:38.598Z,68.94
2015-08-14T00:51:50.989Z,69.23
2015-08-14T00:52:03.366Z,69.32
2015-08-14T00:52:15.741Z,68.75
2015-08-14T00:52:28.132Z,69.04
2015-08-14T00:52:40.522Z,69.13
2015-08-14T00:52:52.241Z,69.13
2015-08-14T00:53:04.509Z,69.23
2015-08-14T00:53:16.993Z,68.94
2015-08-14T00:53:29.399Z,68.94
2015-08-14T00:53:41.805Z,69.04
2015-08-14T00:53:54.212Z,68.94
2015-08-14T00:54:06.620Z,69.13
2015-08-14T00:54:19.042Z,69.04
2015-08-14T00:54:31.464Z,69.32
2015-08-14T00:54:43.839Z,69.32
2015-08-14T00:54:56.214Z,69.32
2015-08-14T00:55:08.434Z,69.42
2015-08-14T00:55:20.809Z,69.7
2015-08-14T00:55:33.013Z,69.79
2015-08-14T00:55:45.388Z,69.7
2015-08-14T00:55:57.763Z,69.51
2015-08-14T00:56:10.155Z,69.7
2015-08-14T00:56:22.530Z,69.7
2015-08-14T00:56:34.921Z,69.79
2015-08-14T00:56:47.296Z,69.76
2015-08-14T00:56:59.671Z,69.89
2015-08-14T00:57:12.048Z,70.08
2015-08-14T00:57:24.298Z,70.14
2015-08-14T00:57:36.673Z,70.08
2015-08-14T00:57:48.360Z,70.08
2015-08-14T00:58:00.735Z,70.27
2015-08-14T00:58:13.128Z,70.08
2015-08-14T00:58:25.503Z,70.08
2015-08-14T00:58:37.878Z,70.05
2015-08-14T00:58:50.253Z,69.89
2015-08-14T00:59:02.628Z,69.7
2015-08-14T00:59:15.021Z,69.51
2015-08-14T00:59:27.396Z,69.6
2015-08-14T00:59:40.021Z,69.79
2015-08-14T00:59:52.396Z,69.48
2015-08-14T01:00:04.771Z,69.6
2015-08-14T01:00:16.991Z,69.6
2015-08-14T01:00:29.366Z,69.32
2015-08-14T01:00:41.757Z,69.57
2015-08-14T01:00:54.148Z,69.32
2015-08-14T01:01:06.523Z,69.32
2015-08-14T01:01:18.915Z,69.38
2015-08-14T01:01:31.306Z,68.65
2015-08-14T01:01:43.712Z,69.19
2015-08-14T01:01:56.118Z,68.9
2015-08-14T01:02:08.525Z,69
2015-08-14T01:02:20.916Z,69
2015-08-14T01:02:33.322Z,69.1
2015-08-14T01:02:45.713Z,69.32
2015-08-14T01:02:58.135Z,69.1
2015-08-14T01:03:10.526Z,69.38
2015-08-14T01:03:22.810Z,69.42
2015-08-14T01:03:35.216Z,69.32
2015-08-14T01:03:47.450Z,69.51
2015-08-14T01:03:59.872Z,69.32
2015-08-14T01:04:12.294Z,69.29
2015-08-14T01:04:24.656Z,69.7
2015-08-14T01:04:37.046Z,69.29
2015-08-14T01:04:49.421Z,69.67
2015-08-14T01:05:01.781Z,69.57
2015-08-14T01:05:14.156Z,69.48
2015-08-14T01:05:26.533Z,69.38
2015-08-14T01:05:38.923Z,69.38
2015-08-14T01:05:51.298Z,69.76
2015-08-14T01:06:03.689Z,69.57
2015-08-14T01:06:16.064Z,69.76
2015-08-14T01:06:28.456Z,69.48
2015-08-14T01:06:40.831Z,69.76
2015-08-14T01:06:53.050Z,69.29
2015-08-14T01:07:05.425Z,69.57
2015-08-14T01:07:17.816Z,69.57
2015-08-14T01:07:30.193Z,69.67
2015-08-14T01:07:42.568Z,69.57
2015-08-14T01:07:54.943Z,69.67
2015-08-14T01:08:07.318Z,69.57
2015-08-14T01:08:19.693Z,69.67
2015-08-14T01:08:31.913Z,69.57
2015-08-14T01:08:44.303Z,69.48
2015-08-14T01:08:56.678Z,69.67
2015-08-14T01:09:09.053Z,69.38
2015-08-14T01:09:21.428Z,69.85
2015-08-14T01:09:33.806Z,69.67
2015-08-14T01:09:46.166Z,69.67
2015-08-14T01:09:58.556Z,69.67
2015-08-14T01:10:10.947Z,69.67
2015-08-14T01:10:23.322Z,69.67
2015-08-14T01:10:34.995Z,69.76
2015-08-14T01:10:47.370Z,69.85
2015-08-14T01:10:59.760Z,69.76
2015-08-14T01:11:12.151Z,69.85
2015-08-14T01:11:24.557Z,69.85
2015-08-14T01:11:36.982Z,69.95
2015-08-14T01:11:49.373Z,69.76
2015-08-14T01:12:01.795Z,70.14
2015-08-14T01:12:14.201Z,69.85
2015-08-14T01:12:26.607Z,70.05
2015-08-14T01:12:38.999Z,70.05
2015-08-14T01:12:51.405Z,70.05
2015-08-14T01:13:03.827Z,70.05
2015-08-14T01:13:16.233Z,70.05
2015-08-14T01:13:28.639Z,70.14
2015-08-14T01:13:41.049Z,70.14
2015-08-14T01:13:53.455Z,70.14
2015-08-14T01:14:05.845Z,70.05
2015-08-14T01:14:18.064Z,70.05
2015-08-14T01:14:30.439Z,70.05
2015-08-14T01:14:42.815Z,70.05
2015-08-14T01:14:55.190Z,70.14
2015-08-14T01:15:07.581Z,70.05
2015-08-14T01:15:19.956Z,70.14
2015-08-14T01:15:32.346Z,70.14
2015-08-14T01:15:44.723Z,70.24
2015-08-14T01:15:57.098Z,70.14
2015-08-14T01:16:09.489Z,70.24
2015-08-14T01:16:21.864Z,70.24
2015-08-14T01:16:34.239Z,70.33
2015-08-14T01:16:46.632Z,70.24
2015-08-14T01:16:59.007Z,70.14
2015-08-14T01:17:11.397Z,70.52
2015-08-14T01:17:23.772Z,70.24
2015-08-14T01:17:36.147Z,70.24
2015-08-14T01:17:48.541Z,70.24
2015-08-14T01:18:00.916Z,70.62
2015-08-14T01:18:13.291Z,70.52
2015-08-14T01:18:25.682Z,70.33
2015-08-14T01:18:38.057Z,70.43
2015-08-14T01:18:50.433Z,70.43
2015-08-14T01:19:02.104Z,70.52
2015-08-14T01:19:14.464Z,70.43
2015-08-14T01:19:26.839Z,70.43
2015-08-14T01:19:39.214Z,70.43
2015-08-14T01:19:51.576Z,70.52
2015-08-14T01:20:03.951Z,70.52
2015-08-14T01:20:16.342Z,70.62
2015-08-14T01:20:28.717Z,70.72
2015-08-14T01:20:41.107Z,70.62
2015-08-14T01:20:53.500Z,70.62
2015-08-14T01:21:05.906Z,70.62
2015-08-14T01:21:18.313Z,70.72
2015-08-14T01:21:30.719Z,70.62
2015-08-14T01:21:43.125Z,70.62
2015-08-14T01:21:55.517Z,70.62
2015-08-14T01:22:07.923Z,70.62
2015-08-14T01:22:20.314Z,70.52
2015-08-14T01:22:32.720Z,70.62
2015-08-14T01:22:45.142Z,70.52
2015-08-14T01:22:57.535Z,70.62
2015-08-14T01:23:09.957Z,70.52
2015-08-14T01:23:22.332Z,70.52
2015-08-14T01:23:34.707Z,70.52
2015-08-14T01:23:46.379Z,70.62
2015-08-14T01:23:58.755Z,70.52
2015-08-14T01:24:11.130Z,70.52
2015-08-14T01:24:23.349Z,70.62
2015-08-14T01:24:35.724Z,70.62
2015-08-14T01:24:48.099Z,70.62
2015-08-14T01:24:59.773Z,70.52
2015-08-14T01:25:12.163Z,70.72
2015-08-14T01:25:24.538Z,70.72
2015-08-14T01:25:36.913Z,70.62
2015-08-14T01:25:49.288Z,70.52
2015-08-14T01:26:01.666Z,70.52
2015-08-14T01:26:14.057Z,70.62
2015-08-14T01:26:26.416Z,70.62
2015-08-14T01:26:38.807Z,70.72
2015-08-14T01:26:51.182Z,70.62
2015-08-14T01:27:03.558Z,70.52
2015-08-14T01:27:15.933Z,70.52
2015-08-14T01:27:28.292Z,70.62
2015-08-14T01:27:40.699Z,70.72
2015-08-14T01:27:53.074Z,70.62
2015-08-14T01:28:05.451Z,70.62
2015-08-14T01:28:17.826Z,70.81
2015-08-14T01:28:30.201Z,70.72
2015-08-14T01:28:42.591Z,70.72
2015-08-14T01:28:54.966Z,70.72
2015-08-14T01:29:07.359Z,70.62
2015-08-14T01:29:19.734Z,70.52
2015-08-14T01:29:32.109Z,70.62
2015-08-14T01:29:44.499Z,70.33
2015-08-14T01:29:56.874Z,70.33
2015-08-14T01:30:09.267Z,70.43
2015-08-14T01:30:21.501Z,70.43
2015-08-14T01:30:33.923Z,70.43
2015-08-14T01:30:46.330Z,70.43
2015-08-14T01:30:58.580Z,70.33
2015-08-14T01:31:10.972Z,70.43
2015-08-14T01:31:23.363Z,70.43
2015-08-14T01:31:35.769Z,70.52
2015-08-14T01:31:48.160Z,70.52
2015-08-14T01:32:00.582Z,70.43
2015-08-14T01:32:12.990Z,70.43
2015-08-14T01:32:25.380Z,70.62
2015-08-14T01:32:37.771Z,70.52
2015-08-14T01:32:50.177Z,70.72
2015-08-14T01:33:02.552Z,70.62
2015-08-14T01:33:14.930Z,70.72
2015-08-14T01:33:27.305Z,70.62
2015-08-14T01:33:39.680Z,70.52
2015-08-14T01:33:52.055Z,70.62
2015-08-14T01:34:04.430Z,70.62
2015-08-14T01:34:16.807Z,70.62
2015-08-14T01:34:29.182Z,70.24
2015-08-14T01:34:41.557Z,70.24
2015-08-14T01:34:53.932Z,70.24
2015-08-14T01:35:06.307Z,70.24
2015-08-14T01:35:18.683Z,70.52
2015-08-14T01:35:30.340Z,70.43
2015-08-14T01:35:42.730Z,70.33
2015-08-14T01:35:55.121Z,70.33
2015-08-14T01:36:07.496Z,70.24
2015-08-14T01:36:19.873Z,70.24
2015-08-14T01:36:32.248Z,70.14
2015-08-14T01:36:44.623Z,70.24
2015-08-14T01:36:57.013Z,70.24
2015-08-14T01:37:09.388Z,70.33
2015-08-14T01:37:21.765Z,70.33
2015-08-14T01:37:34.140Z,70.14
2015-08-14T01:37:46.531Z,70.24
2015-08-14T01:37:58.922Z,70.43
2015-08-14T01:38:11.297Z,70.14
2015-08-14T01:38:23.674Z,70.33
2015-08-14T01:38:36.049Z,70.43
2015-08-14T01:38:48.439Z,70.43
2015-08-14T01:39:00.830Z,70.24
2015-08-14T01:39:12.517Z,70.43
2015-08-14T01:39:24.910Z,70.43
2015-08-14T01:39:37.301Z,70.33
2015-08-14T01:39:49.691Z,70.24
2015-08-14T01:40:02.098Z,70.24
2015-08-14T01:40:14.504Z,70.14
2015-08-14T01:40:26.911Z,70.24
2015-08-14T01:40:39.333Z,70.33
2015-08-14T01:40:51.739Z,70.33
2015-08-14T01:41:04.145Z,70.24
2015-08-14T01:41:16.536Z,70.43
2015-08-14T01:41:28.977Z,70.14
2015-08-14T01:41:41.367Z,70.14
2015-08-14T01:41:53.617Z,70.24
2015-08-14T01:42:06.023Z,70.24
2015-08-14T01:42:18.430Z,70.14
2015-08-14T01:42:30.791Z,69.85
2015-08-14T01:42:43.166Z,69.48
2015-08-14T01:42:55.541Z,69.57
2015-08-14T01:43:07.916Z,69.38
2015-08-14T01:43:20.291Z,69.38
2015-08-14T01:43:32.684Z,69.67
2015-08-14T01:43:45.043Z,69.48
2015-08-14T01:43:57.434Z,69.57
2015-08-14T01:44:09.809Z,69.38
2015-08-14T01:44:22.199Z,69.48
2015-08-14T01:44:34.576Z,69.38
2015-08-14T01:44:46.951Z,69.38
2015-08-14T01:44:59.326Z,69.48
2015-08-14T01:45:11.701Z,69.29
2015-08-14T01:45:24.092Z,69.38
2015-08-14T01:45:36.469Z,69.38
2015-08-14T01:45:48.844Z,69.29
2015-08-14T01:46:01.219Z,69.29
2015-08-14T01:46:13.610Z,69.38
2015-08-14T01:46:25.985Z,69.29
2015-08-14T01:46:38.361Z,68.9
2015-08-14T01:46:50.736Z,69.19
2015-08-14T01:47:03.111Z,69.1
2015-08-14T01:47:15.486Z,69
2015-08-14T01:47:27.861Z,69.1
2015-08-14T01:47:40.238Z,68.71
2015-08-14T01:47:52.613Z,69
2015-08-14T01:48:04.988Z,69.1
2015-08-14T01:48:17.378Z,68.9
2015-08-14T01:48:29.753Z,68.81
2015-08-14T01:48:41.428Z,68.62
2015-08-14T01:48:53.819Z,68.33
2015-08-14T01:49:06.209Z,68.15
2015-08-14T01:49:18.600Z,68.62
2015-08-14T01:49:30.991Z,68.62
2015-08-14T01:49:43.430Z,68.62
2015-08-14T01:49:55.836Z,68.81
2015-08-14T01:50:08.258Z,68.62
2015-08-14T01:50:20.649Z,68.52
2015-08-14T01:50:33.055Z,68.52
2015-08-14T01:50:45.463Z,68.62
2015-08-14T01:50:57.870Z,67.76
2015-08-14T01:51:10.276Z,68.24
2015-08-14T01:51:22.682Z,68.24
2015-08-14T01:51:35.088Z,68.15
2015-08-14T01:51:47.512Z,68.15
2015-08-14T01:51:59.887Z,68.24
2015-08-14T01:52:12.262Z,68.24
2015-08-14T01:52:24.637Z,67.76
2015-08-14T01:52:37.012Z,67.57
2015-08-14T01:52:49.389Z,67.76
2015-08-14T01:53:01.764Z,67.57
2015-08-14T01:53:14.139Z,67.67
2015-08-14T01:53:25.811Z,67.67
2015-08-14T01:53:38.186Z,67.76
2015-08-14T01:53:50.594Z,67.86
2015-08-14T01:54:02.985Z,67.57
2015-08-14T01:54:15.360Z,67.67
2015-08-14T01:54:27.735Z,67.67
2015-08-14T01:54:40.110Z,67.76
2015-08-14T01:54:51.768Z,67.47
2015-08-14T01:55:04.143Z,67.38
2015-08-14T01:55:16.518Z,67.67
2015-08-14T01:55:28.893Z,67.47
2015-08-14T01:55:41.268Z,67.47
2015-08-14T01:55:53.645Z,67.38
2015-08-14T01:56:06.020Z,67.29
2015-08-14T01:56:18.395Z,67.38
2015-08-14T01:56:30.770Z,67.47
2015-08-14T01:56:43.161Z,67.67
2015-08-14T01:56:55.537Z,67.47
2015-08-14T01:57:07.912Z,67.57
2015-08-14T01:57:20.287Z,67.76
2015-08-14T01:57:32.677Z,67.76
2015-08-14T01:57:45.068Z,67.57
2015-08-14T01:57:57.321Z,67.86
2015-08-14T01:58:09.696Z,67.76
2015-08-14T01:58:22.087Z,67.95
2015-08-14T01:58:34.477Z,67.76
2015-08-14T01:58:46.868Z,68.05
2015-08-14T01:58:59.119Z,68.05
2015-08-14T01:59:11.525Z,68.15
2015-08-14T01:59:23.931Z,67.95
2015-08-14T01:59:36.353Z,68.33
2015-08-14T01:59:48.744Z,68.33
2015-08-14T02:00:01.153Z,68.33
2015-08-14T02:00:13.559Z,68.05
2015-08-14T02:00:25.966Z,68.15
2015-08-14T02:00:38.372Z,68.15
2015-08-14T02:00:50.778Z,68.24
2015-08-14T02:01:03.170Z,68.15
2015-08-14T02:01:15.576Z,68.15
2015-08-14T02:01:27.935Z,68.15
2015-08-14T02:01:40.310Z,68.15
2015-08-14T02:01:52.670Z,68.15
2015-08-14T02:02:05.062Z,68.52
2015-08-14T02:02:17.437Z,68.52
2015-08-14T02:02:29.812Z,67.86
2015-08-14T02:02:42.187Z,68.15
2015-08-14T02:02:54.562Z,68.33
2015-08-14T02:03:06.956Z,68.24
2015-08-14T02:03:18.612Z,68.05
2015-08-14T02:03:30.987Z,68.15
2015-08-14T02:03:43.362Z,67.76
2015-08-14T02:03:55.737Z,67.86
2015-08-14T02:04:08.114Z,67.86
2015-08-14T02:04:20.489Z,67.67
2015-08-14T02:04:32.880Z,67.76
2015-08-14T02:04:45.255Z,67.57
2015-08-14T02:04:56.911Z,67.67
2015-08-14T02:05:09.351Z,67.47
2015-08-14T02:05:21.726Z,67.47
2015-08-14T02:05:34.101Z,67.67
2015-08-14T02:05:46.491Z,67.47
2015-08-14T02:05:58.866Z,67.67
2015-08-14T02:06:11.243Z,67.57
2015-08-14T02:06:23.603Z,67.57
2015-08-14T02:06:35.993Z,67.47
2015-08-14T02:06:48.368Z,67.57
2015-08-14T02:07:00.743Z,67.57
2015-08-14T02:07:13.136Z,67.47
2015-08-14T02:07:25.527Z,67.47
2015-08-14T02:07:37.902Z,67.67
2015-08-14T02:07:50.292Z,67.67
2015-08-14T02:08:02.667Z,67.47
2015-08-14T02:08:15.059Z,67.57
2015-08-14T02:08:27.465Z,67.47
2015-08-14T02:08:39.856Z,67.57
2015-08-14T02:08:52.262Z,66.91
2015-08-14T02:09:04.684Z,66.72
2015-08-14T02:09:17.092Z,66.33
2015-08-14T02:09:29.483Z,66.33
2015-08-14T02:09:41.889Z,66.43
2015-08-14T02:09:54.295Z,65.86
2015-08-14T02:10:06.717Z,66.05
2015-08-14T02:10:19.125Z,66.05
2015-08-14T02:10:31.625Z,65.38
2015-08-14T02:10:44.032Z,65.48
2015-08-14T02:10:56.438Z,65.58
2015-08-14T02:11:08.813Z,65.67
2015-08-14T02:11:21.190Z,65.77
2015-08-14T02:11:33.565Z,65.67
2015-08-14T02:11:45.940Z,66.05
2015-08-14T02:11:58.315Z,66.33
2015-08-14T02:12:10.690Z,66.43
2015-08-14T02:12:23.051Z,66.53
2015-08-14T02:12:35.442Z,66.62
2015-08-14T02:12:47.832Z,66.91
2015-08-14T02:13:00.207Z,66.81
2015-08-14T02:13:12.582Z,66.81
2015-08-14T02:13:24.959Z,66.91
2015-08-14T02:13:37.334Z,67.38
2015-08-14T02:13:49.709Z,67.76
2015-08-14T02:14:01.397Z,67.47
2015-08-14T02:14:13.772Z,67.57
2015-08-14T02:14:26.149Z,67.47
2015-08-14T02:14:38.524Z,67.67
2015-08-14T02:14:50.899Z,67.67
2015-08-14T02:15:03.274Z,67
2015-08-14T02:15:15.649Z,66.91
2015-08-14T02:15:28.042Z,66.72
2015-08-14T02:15:40.417Z,66.72
2015-08-14T02:15:52.792Z,66.62
2015-08-14T02:16:05.167Z,66.24
2015-08-14T02:16:17.526Z,66.53
2015-08-14T02:16:29.903Z,66.72
2015-08-14T02:16:42.294Z,66.05
2015-08-14T02:16:54.684Z,66.43
2015-08-14T02:17:07.059Z,66.33
2015-08-14T02:17:19.450Z,65.95
2015-08-14T02:17:31.842Z,66.24
2015-08-14T02:17:44.217Z,65.86
2015-08-14T02:17:56.639Z,65.86
2015-08-14T02:18:09.046Z,65.95
2015-08-14T02:18:21.467Z,66.05
2015-08-14T02:18:33.876Z,65.48
2015-08-14T02:18:46.298Z,65.67
2015-08-14T02:18:58.688Z,65.48
2015-08-14T02:19:11.094Z,65.58
2015-08-14T02:19:23.501Z,65.86
2015-08-14T02:19:35.926Z,65.86
2015-08-14T02:19:48.332Z,65.77
2015-08-14T02:20:00.754Z,65.58
2015-08-14T02:20:13.129Z,65.67
2015-08-14T02:20:25.504Z,65.29
2015-08-14T02:20:37.161Z,64.9
2015-08-14T02:20:49.536Z,65.1
2015-08-14T02:21:01.192Z,65
2015-08-14T02:21:13.567Z,65.1
2015-08-14T02:21:25.942Z,64.62
2015-08-14T02:21:38.304Z,64.24
2015-08-14T02:21:50.741Z,63.96
2015-08-14T02:22:03.116Z,64.34
2015-08-14T02:22:15.491Z,64.15
2015-08-14T02:22:27.866Z,63.86
2015-08-14T02:22:40.259Z,64.15
2015-08-14T02:22:52.634Z,64.15
2015-08-14T02:23:05.009Z,63.96
2015-08-14T02:23:17.399Z,63.67
2015-08-14T02:23:29.774Z,63.67
2015-08-14T02:23:42.151Z,63.67
2015-08-14T02:23:54.526Z,63.57
2015-08-14T02:24:06.901Z,63.39
2015-08-14T02:24:19.276Z,63.29
2015-08-14T02:24:31.636Z,63.2
2015-08-14T02:24:44.028Z,63.1
2015-08-14T02:24:56.403Z,63.2
2015-08-14T02:25:08.778Z,63.2
2015-08-14T02:25:21.153Z,63.29
2015-08-14T02:25:33.528Z,63.29
2015-08-14T02:25:45.905Z,63.48
2015-08-14T02:25:58.280Z,63.39
2015-08-14T02:26:10.671Z,63.57
2015-08-14T02:26:23.062Z,63.39
2015-08-14T02:26:35.452Z,63.67
2015-08-14T02:26:47.829Z,63.67
2015-08-14T02:27:00.220Z,63.48
2015-08-14T02:27:11.907Z,63.57
2015-08-14T02:27:24.314Z,63.48
2015-08-14T02:27:36.720Z,63.76
2015-08-14T02:27:49.127Z,63.86
2015-08-14T02:28:01.533Z,63.67
2015-08-14T02:28:13.940Z,63.86
2015-08-14T02:28:26.361Z,63.67
2015-08-14T02:28:38.752Z,63.96
2015-08-14T02:28:51.193Z,63.86
2015-08-14T02:29:03.599Z,63.76
2015-08-14T02:29:15.989Z,63.76
2015-08-14T02:29:28.427Z,63.86
2015-08-14T02:29:40.802Z,64.34
2015-08-14T02:29:53.179Z,64.15
2015-08-14T02:30:05.554Z,64.05
2015-08-14T02:30:17.929Z,64.05
2015-08-14T02:30:30.304Z,64.15
2015-08-14T02:30:42.679Z,64.05
2015-08-14T02:30:55.056Z,63.96
2015-08-14T02:31:06.712Z,64.24
2015-08-14T02:31:19.103Z,64.24
2015-08-14T02:31:31.478Z,64.24
2015-08-14T02:31:43.853Z,64.05
2015-08-14T02:31:56.230Z,64.05
2015-08-14T02:32:08.605Z,64.15
2015-08-14T02:32:20.980Z,64.24
2015-08-14T02:32:33.370Z,64.05
2015-08-14T02:32:45.745Z,64.24
2015-08-14T02:32:58.121Z,64.34
2015-08-14T02:33:10.340Z,64.34
2015-08-14T02:33:22.715Z,64.43
2015-08-14T02:33:35.090Z,64.34
2015-08-14T02:33:47.465Z,64.34
2015-08-14T02:33:59.843Z,64.24
2015-08-14T02:34:12.265Z,64.24
2015-08-14T02:34:24.640Z,64.43
2015-08-14T02:34:37.015Z,64.34
2015-08-14T02:34:49.390Z,64.34
2015-08-14T02:35:01.767Z,64.43
2015-08-14T02:35:14.142Z,64.43
2015-08-14T02:35:26.517Z,64.53
2015-08-14T02:35:38.923Z,64.24
2015-08-14T02:35:51.298Z,64.53
2015-08-14T02:36:03.691Z,64.15
2015-08-14T02:36:16.066Z,63.96
2015-08-14T02:36:28.457Z,64.34
2015-08-14T02:36:40.847Z,64.05
2015-08-14T02:36:53.253Z,64.05
2015-08-14T02:37:04.942Z,63.76
2015-08-14T02:37:17.364Z,64.15
2015-08-14T02:37:29.754Z,63.96
2015-08-14T02:37:42.145Z,64.24
2015-08-14T02:37:54.551Z,63.76
2015-08-14T02:38:06.961Z,64.05
2015-08-14T02:38:19.382Z,63.76
2015-08-14T02:38:31.632Z,63.76
2015-08-14T02:38:44.039Z,63.96
2015-08-14T02:38:56.461Z,63.96
2015-08-14T02:39:08.837Z,64.05
2015-08-14T02:39:21.196Z,63.86
2015-08-14T02:39:33.571Z,63.86